Time;durP1;ratioP1;P1;durP2;ratioP2;P2;SDS_P1;SDS_P2;PMS_P1;PMS_P2;Temp;Humidity;BMP_temperature;BMP_pressure;BME280_temperature;BME280_humidity;BME280_pressure;Samples;Min_cycle;Max_cycle;Signal;HPM_P1;HPM_P2
2022/08/21 00:02:24;;;;;;;9.50;5.90;;;;;;;20.14;72.77;100498.63;107584;1246;63847;-71
2022/08/21 00:04:54;;;;;;;7.20;5.20;;;;;;;20.08;73.85;100499.85;107647;1247;72233;-72
2022/08/21 00:07:26;;;;;;;7.90;5.70;;;;;;;20.01;75.43;100496.61;107737;1247;59570;-70
2022/08/21 00:09:55;;;;;;;6.80;5.10;;;;;;;20.06;74.94;100493.98;107441;1247;73274;-75
2022/08/21 00:12:24;;;;;;;7.70;5.60;;;;;;;20.10;74.41;100496.98;107536;1247;61302;-72
2022/08/21 00:14:53;;;;;;;9.70;5.40;;;;;;;20.13;73.24;100495.83;107608;1247;59558;-72
2022/08/21 00:17:25;;;;;;;7.70;5.40;;;;;;;20.13;73.42;100498.08;107517;1247;64358;-71
2022/08/21 00:19:54;;;;;;;7.60;5.30;;;;;;;20.14;73.94;100494.84;107599;1246;61419;-74
2022/08/21 00:22:23;;;;;;;7.60;5.20;;;;;;;20.15;74.82;100492.56;107391;1247;69371;-70
2022/08/21 00:24:52;;;;;;;9.30;5.90;;;;;;;20.19;74.51;100483.62;107677;1247;74812;-68
2022/08/21 00:27:20;;;;;;;8.60;5.70;;;;;;;20.27;74.38;100477.05;107406;1247;59649;-71
2022/08/21 00:29:49;;;;;;;13.20;5.80;;;;;;;20.33;74.23;100476.85;107738;1247;59440;-70
2022/08/21 00:32:27;;;;;;;10.00;5.70;;;;;;;20.39;74.60;100483.17;107571;1247;74511;-70
2022/08/21 00:34:55;;;;;;;9.00;5.90;;;;;;;20.43;74.78;100487.42;107485;1247;72601;-73
2022/08/21 00:37:24;;;;;;;6.80;5.50;;;;;;;20.48;73.52;100489.29;107685;1246;59573;-69
2022/08/21 00:39:53;;;;;;;8.70;5.80;;;;;;;20.51;72.79;100489.83;107752;1247;62530;-68
2022/08/21 00:42:41;;;;;;;6.80;5.20;;;;;;;20.49;73.23;100487.42;107452;1248;59608;-69
2022/08/21 00:45:11;;;;;;;7.80;5.30;;;;;;;20.45;73.77;100484.98;107629;1247;58995;-71
2022/08/21 00:47:40;;;;;;;13.60;5.50;;;;;;;20.45;74.04;100483.02;107570;1247;73635;-69
2022/08/21 00:50:11;;;;;;;8.20;5.00;;;;;;;20.49;73.54;100482.85;107623;1247;71792;-69
2022/08/21 00:52:52;;;;;;;9.90;5.40;;;;;;;20.53;72.46;100477.20;107493;1247;60783;-69
2022/08/21 00:55:23;;;;;;;7.60;4.90;;;;;;;20.57;71.59;100477.91;107639;1247;63633;-69
2022/08/21 00:57:58;;;;;;;7.40;5.20;;;;;;;20.59;72.13;100474.19;107724;1245;58905;-72
2022/08/21 01:00:34;;;;;;;6.60;4.80;;;;;;;20.58;72.64;100471.41;107451;1248;60494;-70
2022/08/21 01:03:10;;;;;;;7.30;5.00;;;;;;;20.58;72.73;100469.02;107363;1247;75356;-70
2022/08/21 01:05:40;;;;;;;7.90;5.40;;;;;;;20.58;71.70;100466.17;107409;1247;72177;-74
2022/08/21 01:08:11;;;;;;;7.40;4.80;;;;;;;20.55;71.90;100466.39;107592;1247;59643;-74
2022/08/21 01:10:40;;;;;;;9.60;5.30;;;;;;;20.53;73.19;100467.31;107392;1248;73935;-73
2022/08/21 01:13:11;;;;;;;6.70;5.10;;;;;;;20.50;74.04;100462.47;107395;1248;59086;-72
2022/08/21 01:15:46;;;;;;;7.30;5.20;;;;;;;20.47;73.90;100457.79;107480;1247;59529;-73
2022/08/21 01:18:16;;;;;;;7.60;5.30;;;;;;;20.43;74.91;100453.95;107548;1247;73709;-69
2022/08/21 01:21:15;;;;;;;9.10;5.70;;;;;;;20.39;75.64;100456.14;107247;1249;64444;-70
2022/08/21 01:23:48;;;;;;;8.20;5.40;;;;;;;20.34;76.25;100456.33;107524;1248;70712;-70
2022/08/21 01:26:22;;;;;;;11.70;5.80;;;;;;;20.33;76.04;100458.43;107556;1247;74362;-70
2022/08/21 01:29:10;;;;;;;8.40;5.40;;;;;;;20.32;76.49;100454.87;107363;1247;62724;-71
2022/08/21 01:31:39;;;;;;;7.70;5.60;;;;;;;20.30;76.92;100452.98;107547;1248;59589;-71
2022/08/21 01:34:10;;;;;;;7.40;5.60;;;;;;;20.26;77.45;100456.31;107406;1250;73401;-71
2022/08/21 01:36:39;;;;;;;8.80;5.80;;;;;;;20.21;76.36;100457.19;107419;1250;61259;-71
2022/08/21 01:39:08;;;;;;;7.60;6.00;;;;;;;20.13;75.79;100459.73;107444;1250;60239;-70
2022/08/21 01:41:37;;;;;;;7.70;6.20;;;;;;;19.97;77.07;100459.46;107346;1247;62341;-71
2022/08/21 01:44:06;;;;;;;8.80;6.20;;;;;;;19.85;76.16;100457.34;107547;1248;61087;-72
2022/08/21 01:46:35;;;;;;;9.80;6.20;;;;;;;19.73;77.49;100455.41;107342;1247;61015;-69
2022/08/21 01:49:05;;;;;;;9.90;6.30;;;;;;;19.70;78.14;100453.13;107585;1247;63584;-72
2022/08/21 01:51:34;;;;;;;8.80;5.60;;;;;;;19.68;78.79;100453.86;107454;1247;61639;-70
2022/08/21 01:54:03;;;;;;;8.80;6.20;;;;;;;19.64;79.43;100453.75;107446;1247;70434;-72
2022/08/21 01:56:41;;;;;;;9.40;5.90;;;;;;;19.58;79.81;100453.02;107194;1248;64939;-70
2022/08/21 01:59:11;;;;;;;11.70;6.10;;;;;;;19.53;80.02;100453.71;107247;1247;62546;-70
2022/08/21 02:01:39;;;;;;;9.40;6.60;;;;;;;19.50;80.50;100455.02;107299;1247;59585;-69
2022/08/21 02:04:10;;;;;;;9.30;6.60;;;;;;;19.45;81.19;100449.43;107414;1247;63516;-69
2022/08/21 02:06:39;;;;;;;14.00;6.90;;;;;;;19.42;81.43;100443.02;107477;1247;72237;-70
2022/08/21 02:09:10;;;;;;;8.80;6.30;;;;;;;19.40;81.52;100445.69;107367;1247;69855;-72
2022/08/21 02:11:41;;;;;;;8.80;6.50;;;;;;;19.43;81.38;100445.77;107451;1247;73292;-72
2022/08/21 02:14:14;;;;;;;10.90;6.80;;;;;;;19.45;81.37;100440.19;107347;1247;59610;-71
2022/08/21 02:16:54;;;;;;;10.80;7.00;;;;;;;19.42;81.77;100438.22;107396;1247;59581;-71
2022/08/21 02:19:38;;;;;;;11.80;7.30;;;;;;;19.35;82.13;100438.03;107472;1247;71924;-71
2022/08/21 02:22:10;;;;;;;10.60;7.20;;;;;;;19.28;82.50;100441.91;107288;1247;62806;-72
2022/08/21 02:24:39;;;;;;;13.90;6.80;;;;;;;19.23;82.96;100444.09;107424;1246;71117;-73
2022/08/21 02:27:24;;;;;;;12.00;6.90;;;;;;;19.15;82.69;100445.55;107040;1251;64627;-72
2022/08/21 02:29:57;;;;;;;12.40;6.40;;;;;;;19.03;82.82;100441.56;107490;1248;59640;-72
2022/08/21 02:32:26;;;;;;;10.00;6.70;;;;;;;18.89;84.06;100442.25;107562;1247;58091;-73
2022/08/21 02:34:55;;;;;;;8.30;6.70;;;;;;;18.85;84.65;100442.27;107607;1247;72885;-73
2022/08/21 02:37:24;;;;;;;11.70;7.30;;;;;;;18.84;84.74;100444.48;107538;1247;71743;-74
2022/08/21 02:39:53;;;;;;;13.90;6.60;;;;;;;18.84;83.84;100445.15;107274;1248;60386;-72
2022/08/21 02:42:22;;;;;;;11.70;7.20;;;;;;;18.82;83.59;100442.02;107509;1247;63278;-73
2022/08/21 02:44:51;;;;;;;11.70;6.90;;;;;;;18.83;83.58;100440.72;107246;1247;63005;-72
2022/08/21 02:47:19;;;;;;;8.90;6.20;;;;;;;18.84;83.13;100438.44;107574;1247;60359;-71
2022/08/21 02:49:48;;;;;;;10.00;6.00;;;;;;;18.86;83.24;100433.10;107633;1247;64389;-70
2022/08/21 02:52:16;;;;;;;12.10;6.40;;;;;;;18.87;83.40;100429.16;107619;1247;72255;-73
2022/08/21 02:54:45;;;;;;;12.60;6.80;;;;;;;18.85;83.77;100427.88;107391;1249;60429;-70
2022/08/21 02:57:14;;;;;;;10.00;6.10;;;;;;;18.86;83.07;100427.68;107627;1247;63265;-73
2022/08/21 02:59:42;;;;;;;9.10;6.00;;;;;;;18.85;81.71;100425.66;107603;1247;62888;-73
2022/08/21 03:02:11;;;;;;;10.20;6.30;;;;;;;18.82;82.94;100423.36;107579;1247;59682;-73
2022/08/21 03:04:40;;;;;;;9.90;6.20;;;;;;;18.84;83.09;100417.14;107608;1247;73588;-74
2022/08/21 03:07:15;;;;;;;10.90;6.00;;;;;;;18.89;83.30;100415.66;107477;1248;71852;-74
2022/08/21 03:09:43;;;;;;;9.00;6.00;;;;;;;18.93;82.87;100418.88;107559;1247;70132;-73
2022/08/21 03:12:24;;;;;;;8.90;6.20;;;;;;;18.90;81.97;100420.71;107499;1248;65389;-73
2022/08/21 03:14:57;;;;;;;10.00;6.60;;;;;;;18.91;81.76;100420.77;107570;1247;62231;-74
2022/08/21 03:17:27;;;;;;;10.40;6.30;;;;;;;18.92;82.21;100421.90;107434;1249;59658;-72
2022/08/21 03:19:58;;;;;;;11.40;6.10;;;;;;;18.90;81.63;100424.02;107443;1250;63726;-73
2022/08/21 03:22:27;;;;;;;9.30;5.90;;;;;;;18.85;82.21;100428.84;107429;1247;72383;-72
2022/08/21 03:24:59;;;;;;;11.00;6.70;;;;;;;18.77;81.50;100431.52;107606;1248;61132;-73
2022/08/21 03:27:34;;;;;;;10.70;6.70;;;;;;;18.70;81.73;100441.62;107551;1248;73151;-71
2022/08/21 03:30:25;;;;;;;10.40;6.60;;;;;;;18.67;82.02;100444.27;107201;1248;62820;-74
2022/08/21 03:32:54;;;;;;;10.90;6.60;;;;;;;18.61;82.60;100448.53;107428;1247;60557;-72
2022/08/21 03:35:26;;;;;;;7.50;6.40;;;;;;;18.60;83.96;100451.48;107316;1250;64255;-71
2022/08/21 03:37:55;;;;;;;7.70;6.30;;;;;;;18.63;84.20;100460.83;107618;1247;71440;-70
2022/08/21 03:40:25;;;;;;;12.00;6.80;;;;;;;18.65;83.73;100463.05;107529;1247;59477;-70
2022/08/21 03:42:54;;;;;;;11.60;6.40;;;;;;;18.70;83.27;100460.08;107522;1247;73902;-70
2022/08/21 03:45:23;;;;;;;8.80;6.50;;;;;;;18.74;83.81;100459.52;107623;1247;62766;-71
2022/08/21 03:47:59;;;;;;;10.10;6.60;;;;;;;18.80;83.74;100464.16;107595;1247;61049;-71
2022/08/21 03:50:34;;;;;;;16.10;7.60;;;;;;;18.88;84.00;100468.85;107547;1247;65491;-71
2022/08/21 03:53:11;;;;;;;10.50;6.80;;;;;;;18.92;83.57;100472.45;107653;1246;60863;-71
2022/08/21 03:55:49;;;;;;;11.50;6.80;;;;;;;18.97;83.12;100473.89;107609;1247;60073;-73
2022/08/21 03:58:22;;;;;;;12.10;7.40;;;;;;;19.00;83.19;100477.25;107607;1247;63994;-70
2022/08/21 04:00:54;;;;;;;12.90;7.30;;;;;;;19.02;83.69;100479.95;107553;1247;59563;-71
2022/08/21 04:03:23;;;;;;;15.20;7.00;;;;;;;19.05;83.98;100479.60;107755;1247;60479;-74
2022/08/21 04:05:52;;;;;;;11.90;7.10;;;;;;;19.11;83.95;100478.84;107374;1247;63607;-73
2022/08/21 04:08:21;;;;;;;11.60;7.10;;;;;;;19.26;83.12;100479.55;107342;1247;71098;-77
2022/08/21 04:10:53;;;;;;;10.40;7.40;;;;;;;19.40;82.34;100483.92;107439;1247;71347;-74
2022/08/21 04:13:22;;;;;;;12.70;6.90;;;;;;;19.54;81.76;100486.17;107670;1247;62397;-74
2022/08/21 04:15:51;;;;;;;10.10;7.10;;;;;;;19.68;80.91;100483.73;107613;1247;59640;-75
2022/08/21 04:18:20;;;;;;;14.30;8.10;;;;;;;19.82;80.19;100483.55;107603;1247;59631;-79
2022/08/21 04:20:52;;;;;;;17.80;9.60;;;;;;;19.93;80.06;100484.36;107583;1249;63819;-73
2022/08/21 04:23:22;;;;;;;15.80;9.30;;;;;;;20.02;80.39;100483.66;107538;1249;61632;-74
2022/08/21 04:25:55;;;;;;;14.30;9.40;;;;;;;20.14;80.20;100482.43;107588;1247;59230;-74
2022/08/21 04:28:26;;;;;;;16.10;9.40;;;;;;;20.17;79.97;100485.27;107445;1247;73968;-72
2022/08/21 04:30:57;;;;;;;13.30;9.40;;;;;;;20.18;79.74;100485.88;107577;1247;62513;-71
2022/08/21 04:33:26;;;;;;;15.00;10.60;;;;;;;20.26;79.20;100480.70;107460;1250;59596;-72
2022/08/21 04:35:55;;;;;;;12.80;9.50;;;;;;;20.32;78.91;100479.12;107378;1250;63105;-78
2022/08/21 04:38:24;;;;;;;16.70;10.40;;;;;;;20.31;79.03;100481.35;107495;1247;70235;-74
2022/08/21 04:40:53;;;;;;;12.10;9.80;;;;;;;20.32;78.86;100484.33;107643;1247;71363;-72
2022/08/21 04:43:23;;;;;;;14.50;9.80;;;;;;;20.44;78.59;100485.00;107400;1249;73868;-74
2022/08/21 04:45:52;;;;;;;15.90;10.50;;;;;;;20.50;78.55;100487.25;107353;1247;63438;-74
2022/08/21 04:48:23;;;;;;;14.40;10.20;;;;;;;20.55;77.96;100485.27;107646;1247;59701;-77
2022/08/21 04:51:05;;;;;;;14.50;9.60;;;;;;;20.57;77.94;100483.66;107491;1247;73648;-78
2022/08/21 04:53:46;;;;;;;13.00;10.50;;;;;;;20.65;77.22;100477.67;107557;1247;61321;-72
2022/08/21 04:56:25;;;;;;;15.00;9.60;;;;;;;20.72;76.67;100479.23;107284;1250;60513;-70
2022/08/21 04:58:59;;;;;;;11.00;9.50;;;;;;;20.80;76.26;100478.17;107247;1250;62530;-73
2022/08/21 05:01:33;;;;;;;14.80;9.70;;;;;;;20.98;75.53;100474.85;107486;1248;59678;-75
2022/08/21 05:04:05;;;;;;;12.90;9.60;;;;;;;21.10;74.35;100470.69;107424;1248;59561;-75
2022/08/21 05:06:40;;;;;;;15.10;9.40;;;;;;;21.22;74.38;100474.83;107456;1249;63803;-82
2022/08/21 05:09:14;;;;;;;12.40;8.80;;;;;;;21.30;74.09;100475.23;107174;1250;72480;-79
2022/08/21 05:11:46;;;;;;;10.50;9.00;;;;;;;21.28;74.15;100471.44;107252;1250;71764;-79
2022/08/21 05:14:15;;;;;;;12.20;8.20;;;;;;;21.27;73.99;100471.52;107476;1249;62903;-78
2022/08/21 05:16:44;;;;;;;12.60;7.80;;;;;;;21.36;73.36;100471.12;107354;1250;59540;-78
2022/08/21 05:19:13;;;;;;;10.80;8.20;;;;;;;21.48;72.72;100469.15;107608;1247;57756;-78
2022/08/21 05:21:45;;;;;;;12.30;8.40;;;;;;;21.53;72.51;100465.66;107187;1251;63815;-76
2022/08/21 05:24:14;;;;;;;13.30;8.00;;;;;;;21.64;71.56;100468.68;107583;1247;72433;-74
2022/08/21 05:26:44;;;;;;;11.80;7.70;;;;;;;21.83;71.36;100469.40;107539;1247;59645;-70
2022/08/21 05:29:17;;;;;;;12.70;7.30;;;;;;;21.95;70.98;100476.09;107396;1250;62547;-71
2022/08/21 05:31:47;;;;;;;10.00;7.30;;;;;;;22.02;70.68;100474.48;107620;1247;59603;-71
2022/08/21 05:34:23;;;;;;;11.60;7.20;;;;;;;22.07;70.13;100470.85;107379;1247;59599;-72
2022/08/21 05:36:51;;;;;;;8.90;6.40;;;;;;;22.13;69.29;100469.16;107477;1247;74973;-72
2022/08/21 05:39:20;;;;;;;10.10;6.80;;;;;;;22.15;69.30;100469.80;107602;1247;71867;-72
2022/08/21 05:41:49;;;;;;;8.60;6.60;;;;;;;22.37;69.19;100465.80;107649;1247;61851;-74
2022/08/21 05:44:18;;;;;;;8.00;6.20;;;;;;;22.54;67.04;100466.40;107674;1248;62491;-72
2022/08/21 05:46:50;;;;;;;10.70;6.10;;;;;;;22.74;66.04;100462.56;107529;1248;61721;-73
2022/08/21 05:49:19;;;;;;;8.30;6.00;;;;;;;22.92;65.08;100462.35;107350;1248;60848;-72
2022/08/21 05:51:48;;;;;;;9.70;6.10;;;;;;;22.92;64.09;100459.89;107625;1247;74088;-73
2022/08/21 05:54:16;;;;;;;11.80;7.10;;;;;;;23.08;64.13;100456.81;107308;1249;72656;-73
2022/08/21 05:56:45;;;;;;;10.10;6.80;;;;;;;23.12;64.29;100454.86;107440;1250;59778;-71
2022/08/21 05:59:14;;;;;;;11.90;6.80;;;;;;;23.19;64.51;100459.48;107407;1250;63411;-78
2022/08/21 06:01:45;;;;;;;10.20;5.90;;;;;;;23.18;64.39;100457.23;107276;1250;58381;-73
2022/08/21 06:04:14;;;;;;;8.90;5.80;;;;;;;23.28;64.39;100454.52;107504;1247;61373;-70
2022/08/21 06:06:43;;;;;;;12.30;6.70;;;;;;;23.28;64.65;100450.66;107304;1250;64320;-73
2022/08/21 06:09:12;;;;;;;14.50;6.50;;;;;;;23.37;63.80;100447.45;107628;1247;70468;-70
2022/08/21 06:11:41;;;;;;;10.40;6.10;;;;;;;23.47;63.89;100447.80;107526;1249;70404;-71
2022/08/21 06:14:09;;;;;;;11.20;6.30;;;;;;;23.55;63.95;100451.85;107262;1247;72523;-72
2022/08/21 06:16:38;;;;;;;9.70;6.10;;;;;;;23.79;63.71;100451.41;107494;1247;59624;-72
2022/08/21 06:19:07;;;;;;;7.60;5.50;;;;;;;23.84;62.82;100456.39;107552;1247;59489;-71
2022/08/21 06:21:36;;;;;;;6.80;5.40;;;;;;;23.82;62.62;100458.93;107506;1247;74495;-75
2022/08/21 06:24:06;;;;;;;9.70;5.60;;;;;;;23.68;63.32;100458.80;107563;1249;71044;-72
2022/08/21 06:26:35;;;;;;;11.80;6.30;;;;;;;23.86;62.63;100460.38;107389;1247;60063;-72
2022/08/21 06:29:05;;;;;;;13.40;6.90;;;;;;;23.85;61.98;100462.23;107542;1247;73574;-73
2022/08/21 06:31:34;;;;;;;8.70;6.20;;;;;;;23.96;62.05;100461.91;107421;1250;59588;-72
2022/08/21 06:34:03;;;;;;;17.90;7.40;;;;;;;24.00;62.06;100460.46;107455;1247;60432;-72
2022/08/21 06:36:31;;;;;;;11.70;7.80;;;;;;;24.10;62.06;100463.17;107750;1247;64988;-74
2022/08/21 06:39:00;;;;;;;13.70;8.50;;;;;;;24.49;60.67;100461.20;107627;1248;61650;-74
2022/08/21 06:41:44;;;;;;;11.60;7.40;;;;;;;24.49;60.32;100458.63;107725;1247;69750;-73
2022/08/21 06:44:16;;;;;;;11.80;6.50;;;;;;;24.49;59.87;100460.09;107422;1250;73491;-72
2022/08/21 06:46:45;;;;;;;10.50;7.10;;;;;;;24.48;60.15;100462.20;107715;1247;58423;-73
2022/08/21 06:49:15;;;;;;;10.10;6.70;;;;;;;24.47;60.75;100461.66;107649;1248;57952;-72
2022/08/21 06:51:49;;;;;;;10.50;7.00;;;;;;;24.65;60.16;100462.99;107636;1250;72968;-73
2022/08/21 06:54:18;;;;;;;11.90;6.40;;;;;;;24.89;60.04;100462.88;107414;1249;72229;-80
2022/08/21 06:56:47;;;;;;;11.30;7.00;;;;;;;25.11;58.52;100462.79;107674;1247;70117;-73
2022/08/21 06:59:15;;;;;;;12.20;8.20;;;;;;;25.09;58.48;100466.15;107619;1247;74348;-72
2022/08/21 07:01:44;;;;;;;9.30;6.90;;;;;;;25.26;58.68;100465.98;107544;1248;58987;-72
2022/08/21 07:04:13;;;;;;;13.70;6.40;;;;;;;25.31;57.90;100466.98;107545;1247;57930;-70
2022/08/21 07:06:42;;;;;;;9.60;7.30;;;;;;;25.18;58.37;100469.95;107503;1247;73416;-72
2022/08/21 07:09:11;;;;;;;8.20;6.00;;;;;;;25.31;58.31;100468.34;107476;1247;71534;-74
2022/08/21 07:11:39;;;;;;;8.90;6.60;;;;;;;25.41;58.01;100465.20;107692;1247;70907;-76
2022/08/21 07:14:15;;;;;;;12.30;7.30;;;;;;;25.45;57.71;100465.02;107617;1247;73855;-72
2022/08/21 07:16:50;;;;;;;12.20;6.70;;;;;;;25.48;57.23;100464.50;107606;1247;60875;-71
2022/08/21 07:19:19;;;;;;;9.00;6.10;;;;;;;25.35;58.07;100469.55;107613;1248;59024;-77
2022/08/21 07:21:49;;;;;;;13.60;7.00;;;;;;;25.38;58.09;100468.09;107439;1249;74747;-73
2022/08/21 07:24:17;;;;;;;12.00;7.00;;;;;;;25.35;58.15;100465.52;107657;1248;62914;-75
2022/08/21 07:26:46;;;;;;;11.10;7.40;;;;;;;25.50;58.12;100462.48;107780;1247;59933;-75
2022/08/21 07:29:15;;;;;;;10.20;7.10;;;;;;;25.53;57.89;100460.48;107866;1247;73094;-72
2022/08/21 07:31:45;;;;;;;13.80;7.10;;;;;;;25.55;57.65;100459.23;107719;1248;60166;-72
2022/08/21 07:34:14;;;;;;;15.40;8.90;;;;;;;25.48;58.01;100458.54;107762;1247;60493;-73
2022/08/21 07:36:43;;;;;;;12.00;6.50;;;;;;;25.57;57.81;100458.20;107592;1248;64739;-73
2022/08/21 07:39:12;;;;;;;11.30;6.80;;;;;;;25.63;57.75;100461.09;107599;1249;60693;-72
2022/08/21 07:41:41;;;;;;;11.70;6.70;;;;;;;25.66;57.47;100454.02;107812;1247;68719;-71
2022/08/21 07:44:09;;;;;;;12.20;6.80;;;;;;;25.68;57.44;100451.45;107646;1248;73872;-73
2022/08/21 07:46:40;;;;;;;11.70;7.30;;;;;;;25.75;56.88;100450.36;107761;1247;61949;-72
2022/08/21 07:49:08;;;;;;;10.20;6.30;;;;;;;25.77;57.11;100449.64;107582;1248;61131;-71
2022/08/21 07:51:37;;;;;;;7.80;6.60;;;;;;;25.70;57.17;100444.35;107819;1247;64396;-73
2022/08/21 07:54:06;;;;;;;8.10;6.30;;;;;;;25.77;57.22;100440.27;107768;1247;71057;-74
2022/08/21 07:56:34;;;;;;;9.60;6.60;;;;;;;26.10;57.12;100438.71;107659;1248;68792;-72
2022/08/21 07:59:03;;;;;;;7.90;6.50;;;;;;;26.29;56.36;100434.27;107617;1248;63307;-72
2022/08/21 08:01:32;;;;;;;9.80;6.30;;;;;;;26.54;55.46;100427.02;107362;1250;59593;-72
2022/08/21 08:04:01;;;;;;;11.10;6.40;;;;;;;26.77;53.75;100423.80;107516;1250;59571;-72
2022/08/21 08:06:30;;;;;;;9.50;6.40;;;;;;;26.73;53.92;100424.10;107564;1247;63801;-71
2022/08/21 08:09:02;;;;;;;9.40;6.30;;;;;;;26.55;54.44;100424.03;107648;1247;60943;-71
2022/08/21 08:11:31;;;;;;;8.00;6.40;;;;;;;26.30;55.04;100425.51;107688;1248;60017;-73
2022/08/21 08:14:00;;;;;;;8.90;6.30;;;;;;;26.40;55.18;100416.86;107593;1247;74323;-72
2022/08/21 08:16:29;;;;;;;10.00;5.80;;;;;;;26.39;55.14;100418.46;107293;1250;59588;-73
2022/08/21 08:18:58;;;;;;;9.90;6.60;;;;;;;26.45;55.12;100418.89;107640;1250;60812;-72
2022/08/21 08:21:27;;;;;;;14.40;7.40;;;;;;;26.45;55.28;100420.54;107480;1250;63635;-74
2022/08/21 08:23:56;;;;;;;9.40;6.70;;;;;;;26.70;54.80;100417.90;107272;1250;71422;-73
2022/08/21 08:26:24;;;;;;;11.80;6.50;;;;;;;26.93;54.21;100413.21;107523;1249;71022;-75
2022/08/21 08:28:53;;;;;;;9.40;6.40;;;;;;;26.71;53.87;100412.56;107623;1247;62939;-73
2022/08/21 08:31:23;;;;;;;12.00;6.70;;;;;;;26.72;54.18;100412.76;107674;1247;59569;-74
2022/08/21 08:33:52;;;;;;;11.00;6.90;;;;;;;26.68;54.13;100414.69;107452;1248;60225;-72
2022/08/21 08:36:33;;;;;;;11.20;6.60;;;;;;;26.94;53.38;100412.95;107559;1247;75109;-71
2022/08/21 08:39:05;;;;;;;12.10;6.60;;;;;;;26.77;54.01;100413.40;107350;1247;62291;-73
2022/08/21 08:41:41;;;;;;;8.60;6.80;;;;;;;26.73;54.18;100413.75;107567;1249;59513;-74
2022/08/21 08:44:10;;;;;;;11.00;6.40;;;;;;;26.78;53.42;100410.68;107610;1247;73208;-73
2022/08/21 08:46:46;;;;;;;8.30;5.50;;;;;;;26.95;53.19;100407.27;107648;1248;61272;-73
2022/08/21 08:49:36;;;;;;;10.10;6.00;;;;;;;26.99;52.30;100406.48;107528;1249;59670;-74
2022/08/21 08:52:26;;;;;;;8.20;6.10;;;;;;;27.17;51.36;100404.83;107600;1249;63804;-74
2022/08/21 08:55:07;;;;;;;12.40;6.30;;;;;;;27.19;50.81;100401.27;107675;1247;61689;-74
2022/08/21 08:57:39;;;;;;;12.50;5.60;;;;;;;27.54;50.23;100402.46;107285;1251;59972;-71
2022/08/21 09:00:13;;;;;;;9.80;6.00;;;;;;;27.76;48.97;100401.77;107233;1250;62551;-73
2022/08/21 09:02:47;;;;;;;7.10;4.70;;;;;;;27.48;46.72;100399.58;107463;1250;59616;-73
2022/08/21 09:05:25;;;;;;;10.00;5.90;;;;;;;27.52;46.70;100398.20;107547;1248;60702;-72
2022/08/21 09:08:03;;;;;;;6.80;4.70;;;;;;;27.65;46.57;100390.56;107486;1247;74395;-74
2022/08/21 09:10:51;;;;;;;11.30;5.10;;;;;;;27.69;46.34;100384.15;107693;1247;62034;-73
2022/08/21 09:14:01;;;;;;;7.20;4.60;;;;;;;27.96;47.10;100391.29;107661;1247;70550;-71
2022/08/21 09:17:05;;;;;;;10.10;4.90;;;;;;;28.18;46.22;100388.58;107261;1250;63702;-73
2022/08/21 09:19:57;;;;;;;7.20;4.20;;;;;;;28.27;44.47;100382.38;107674;1247;61275;-72
2022/08/21 09:22:30;;;;;;;10.40;5.40;;;;;;;28.02;44.91;100381.71;107693;1247;61744;-72
2022/08/21 09:25:22;;;;;;;7.30;4.70;;;;;;;28.04;45.63;100382.73;107667;1247;75057;-72
2022/08/21 09:27:51;;;;;;;5.30;4.10;;;;;;;27.88;45.61;100380.84;107504;1247;62861;-72
2022/08/21 09:30:33;;;;;;;5.90;4.50;;;;;;;28.06;45.05;100383.34;107697;1248;59256;-73
2022/08/21 09:33:02;;;;;;;7.50;4.50;;;;;;;28.08;44.59;100380.79;107413;1250;73487;-72
2022/08/21 09:35:32;;;;;;;7.00;4.20;;;;;;;27.98;44.67;100383.60;107251;1247;59597;-73
2022/08/21 09:38:07;;;;;;;7.60;4.80;;;;;;;28.26;44.52;100376.83;107669;1247;60496;-70
2022/08/21 09:40:35;;;;;;;7.90;4.80;;;;;;;28.36;44.43;100379.48;107479;1250;75030;-72
2022/08/21 09:43:13;;;;;;;7.40;5.00;;;;;;;28.47;44.38;100377.31;107662;1247;62376;-71
2022/08/21 09:45:43;;;;;;;6.70;4.90;;;;;;;28.49;44.03;100374.83;107456;1250;60094;-73
2022/08/21 09:48:21;;;;;;;5.30;4.60;;;;;;;28.56;43.85;100372.77;107483;1247;72787;-69
2022/08/21 09:51:07;;;;;;;7.50;4.90;;;;;;;28.14;43.92;100373.98;107439;1249;59578;-72
2022/08/21 09:53:44;;;;;;;7.50;4.50;;;;;;;28.32;43.82;100371.86;107517;1248;59583;-73
2022/08/21 09:59:24;;;;;;;8.10;4.70;;;;;;;28.70;44.31;100371.77;107702;1247;61674;-72
2022/08/21 10:01:54;;;;;;;7.10;4.70;;;;;;;28.88;43.95;100370.50;107302;1250;60021;-76
2022/08/21 10:04:36;;;;;;;7.10;4.70;;;;;;;29.05;43.73;100352.81;107308;1248;73154;-74
2022/08/21 10:07:12;;;;;;;11.50;5.20;;;;;;;29.25;43.43;100358.98;107672;1247;61736;-74
2022/08/21 10:09:42;;;;;;;7.90;4.90;;;;;;;29.21;42.83;100357.74;107614;1247;61152;-74
2022/08/21 10:12:33;;;;;;;5.40;4.00;;;;;;;29.46;43.11;100358.45;107488;1247;74884;-74
2022/08/21 10:15:53;;;;;;;7.20;4.60;;;;;;;29.47;42.84;100351.68;107438;1250;72651;-72
2022/08/21 10:19:03;;;;;;;7.80;5.20;;;;;;;29.21;42.92;100347.77;107545;1247;71141;-75
2022/08/21 10:21:54;;;;;;;7.80;4.90;;;;;;;29.19;43.28;100342.79;107372;1250;62941;-72
2022/08/21 10:24:40;;;;;;;9.80;5.20;;;;;;;29.58;42.73;100341.02;107276;1247;59670;-73
2022/08/21 10:27:46;;;;;;;6.60;4.70;;;;;;;29.44;42.38;100342.85;107589;1247;60518;-70
2022/08/21 10:30:23;;;;;;;7.40;4.50;;;;;;;29.61;42.20;100336.59;107594;1247;74018;-69
2022/08/21 10:33:19;;;;;;;8.00;4.30;;;;;;;29.80;40.81;100334.62;107651;1248;62026;-71
2022/08/21 10:36:20;;;;;;;9.70;5.10;;;;;;;29.95;40.36;100332.36;107638;1247;69767;-72
2022/08/21 10:39:20;;;;;;;9.50;4.90;;;;;;;30.02;40.18;100329.61;107252;1247;74537;-72
2022/08/21 10:42:20;;;;;;;5.70;4.10;;;;;;;30.36;40.46;100327.69;107420;1248;59684;-73
2022/08/21 10:45:15;;;;;;;5.90;4.30;;;;;;;30.63;39.27;100327.27;107565;1247;59547;-71
2022/08/21 10:47:49;;;;;;;5.30;4.20;;;;;;;30.68;38.99;100325.95;107483;1247;74493;-72
2022/08/21 10:50:48;;;;;;;8.10;4.30;;;;;;;30.71;38.70;100320.80;107628;1249;61761;-70
2022/08/21 10:54:01;;;;;;;8.60;4.40;;;;;;;31.11;38.59;100321.55;107585;1248;60028;-73
2022/08/21 10:56:38;;;;;;;7.90;4.60;;;;;;;31.20;38.60;100320.17;107670;1248;72934;-72
2022/08/21 10:59:35;;;;;;;6.60;4.90;;;;;;;31.31;38.50;100314.58;107666;1248;61717;-72
2022/08/21 11:02:27;;;;;;;5.10;4.30;;;;;;;31.22;37.97;100310.48;107865;1247;61021;-76
2022/08/21 11:05:25;;;;;;;8.90;4.70;;;;;;;30.95;38.41;100307.37;107738;1248;64166;-73
2022/08/21 11:08:21;;;;;;;7.10;4.50;;;;;;;30.97;38.60;100301.35;107848;1247;61226;-75
2022/08/21 11:11:31;;;;;;;7.80;4.40;;;;;;;30.87;38.93;100302.96;107499;1247;70559;-73
2022/08/21 11:14:41;;;;;;;7.60;4.50;;;;;;;31.09;38.73;100301.61;107689;1247;63803;-74
2022/08/21 11:17:27;;;;;;;8.00;4.60;;;;;;;31.68;38.53;100292.05;107638;1249;60276;-73
2022/08/21 11:20:10;;;;;;;6.80;4.40;;;;;;;32.11;37.86;100291.61;107552;1247;58936;-72
2022/08/21 11:23:04;;;;;;;7.80;4.50;;;;;;;32.67;37.02;100293.13;107666;1247;73673;-71
2022/08/21 11:26:00;;;;;;;5.50;4.00;;;;;;;33.29;36.31;100288.13;107530;1247;71861;-72
2022/08/21 11:28:55;;;;;;;7.90;4.30;;;;;;;33.40;34.66;100283.64;107687;1247;59148;-72
2022/08/21 11:31:44;;;;;;;9.80;4.40;;;;;;;33.18;35.34;100284.02;106311;1248;1698912;-71
2022/08/21 11:34:16;;;;;;;9.00;4.90;;;;;;;32.95;35.16;100281.91;107462;1247;59578;-72
2022/08/21 11:36:53;;;;;;;7.70;4.50;;;;;;;33.03;35.36;100279.19;107715;1247;57745;-73
2022/08/21 11:39:44;;;;;;;6.00;4.60;;;;;;;33.36;34.99;100275.41;107556;1247;63041;-74
2022/08/21 11:42:33;;;;;;;14.10;4.90;;;;;;;33.79;34.07;100269.86;107675;1247;60998;-73
2022/08/21 11:45:22;;;;;;;8.60;5.00;;;;;;;33.93;33.50;100269.92;107613;1247;60023;-73
2022/08/21 11:48:15;;;;;;;8.70;5.40;;;;;;;33.82;33.93;100270.26;107416;1250;63944;-71
2022/08/21 11:50:45;;;;;;;8.80;4.50;;;;;;;34.49;33.09;100264.34;107567;1247;59493;-72
2022/08/21 11:53:52;;;;;;;6.60;4.60;;;;;;;35.29;32.26;100258.02;107662;1248;59679;-75